Time;durP1;ratioP1;P1;durP2;ratioP2;P2;SDS_P1;SDS_P2;PMS_P1;PMS_P2;Temp;Humidity;BMP_temperature;BMP_pressure;BME280_temperature;BME280_humidity;BME280_pressure;Samples;Min_cycle;Max_cycle;Signal;HPM_P1;HPM_P2
2021/10/03 00:00:22;;;;;;;7.50;6.20;;;16.20;71.00;;;;;;4975936;28;20423;-77
2021/10/03 00:02:52;;;;;;;6.93;6.33;;;16.10;73.20;;;;;;4975355;28;20488;-80
2021/10/03 00:05:20;;;;;;;6.80;5.93;;;16.10;74.80;;;;;;4993198;28;20431;-79
2021/10/03 00:07:49;;;;;;;7.20;6.20;;;16.00;74.80;;;;;;4978073;28;20456;-80
2021/10/03 00:10:18;;;;;;;6.93;6.23;;;16.00;74.50;;;;;;4979406;29;20477;-84
2021/10/03 00:12:46;;;;;;;7.57;5.70;;;16.10;73.60;;;;;;4999713;28;20418;-79
2021/10/03 00:15:14;;;;;;;6.77;5.87;;;16.10;73.80;;;;;;5001486;28;20475;-81
2021/10/03 00:17:42;;;;;;;8.30;6.10;;;16.20;73.90;;;;;;5001669;28;20472;-80
2021/10/03 00:20:12;;;;;;;7.33;6.50;;;16.20;73.80;;;;;;5001315;28;20424;-80
2021/10/03 00:22:39;;;;;;;6.00;5.40;;;16.20;73.30;;;;;;4985922;28;20433;-80
2021/10/03 00:25:08;;;;;;;6.90;6.20;;;16.30;73.30;;;;;;4974290;28;20476;-80
2021/10/03 00:27:35;;;;;;;5.97;5.40;;;16.30;73.30;;;;;;4971103;28;20452;-80
2021/10/03 00:30:02;;;;;;;7.00;5.40;;;16.40;73.40;;;;;;4975824;28;20944;-81
2021/10/03 00:32:29;;;;;;;5.93;5.43;;;16.40;72.20;;;;;;4984736;28;20528;-83
2021/10/03 00:34:57;;;;;;;6.30;4.67;;;16.50;70.90;;;;;;4982617;28;20474;-80
2021/10/03 00:37:25;;;;;;;5.63;5.13;;;16.50;69.80;;;;;;4977423;29;20492;-81
2021/10/03 00:39:52;;;;;;;9.30;5.30;;;16.60;68.40;;;;;;4988025;28;20488;-80
2021/10/03 00:42:19;;;;;;;5.23;4.73;;;16.60;67.90;;;;;;4998103;28;20444;-81
2021/10/03 00:44:46;;;;;;;5.20;4.70;;;16.70;66.80;;;;;;4989534;28;20428;-81
2021/10/03 00:47:15;;;;;;;5.30;4.20;;;16.80;65.50;;;;;;4978953;28;20464;-82
2021/10/03 00:49:43;;;;;;;5.60;4.30;;;16.80;64.90;;;;;;4979906;28;20457;-81
2021/10/03 00:52:12;;;;;;;4.97;3.90;;;16.90;65.00;;;;;;4977277;29;20442;-81
2021/10/03 00:54:40;;;;;;;4.90;4.40;;;17.00;62.90;;;;;;4979469;28;20428;-80
2021/10/03 00:57:08;;;;;;;4.60;3.87;;;17.10;62.50;;;;;;4977767;28;20463;-80
2021/10/03 00:59:35;;;;;;;4.67;4.27;;;17.20;61.70;;;;;;4996626;28;20455;-81
2021/10/03 01:02:03;;;;;;;4.43;3.80;;;17.20;60.60;;;;;;4995656;28;20443;-81
2021/10/03 01:04:30;;;;;;;4.53;4.13;;;17.30;60.20;;;;;;4991728;28;20427;-80
2021/10/03 01:06:58;;;;;;;4.07;3.67;;;17.40;60.00;;;;;;4985360;28;20992;-80
2021/10/03 01:09:27;;;;;;;5.50;4.30;;;17.40;58.60;;;;;;4993093;28;20458;-80
2021/10/03 01:11:55;;;;;;;4.63;4.17;;;17.40;58.50;;;;;;4999380;28;20435;-79
2021/10/03 01:14:22;;;;;;;4.20;3.80;;;17.40;59.00;;;;;;5000014;28;20437;-78
2021/10/03 01:16:50;;;;;;;5.20;4.70;;;17.40;60.20;;;;;;5000437;28;20463;-79
2021/10/03 01:19:17;;;;;;;5.57;4.73;;;17.30;62.50;;;;;;4988646;28;20494;-79
2021/10/03 01:21:47;;;;;;;6.07;5.23;;;17.10;64.80;;;;;;4971345;28;20472;-82
2021/10/03 01:24:15;;;;;;;5.90;5.40;;;17.00;65.00;;;;;;4978024;28;20460;-81
2021/10/03 01:26:42;;;;;;;5.40;4.90;;;16.90;65.00;;;;;;4988098;28;20428;-82
2021/10/03 01:29:10;;;;;;;6.87;6.00;;;16.90;65.20;;;;;;4993050;28;20415;-81
2021/10/03 01:31:37;;;;;;;5.43;4.60;;;16.80;66.40;;;;;;4990829;28;20428;-82
2021/10/03 01:34:04;;;;;;;6.10;5.13;;;16.80;66.90;;;;;;4980999;28;20467;-80
2021/10/03 01:36:31;;;;;;;5.43;4.93;;;16.70;67.60;;;;;;4988738;28;20456;-80
2021/10/03 01:39:00;;;;;;;6.87;6.17;;;16.70;68.40;;;;;;4993782;28;20423;-79
2021/10/03 01:41:27;;;;;;;5.97;5.33;;;16.60;68.90;;;;;;4983168;28;20540;-80
2021/10/03 01:43:54;;;;;;;5.77;5.20;;;16.60;69.20;;;;;;4980629;28;20455;-80
2021/10/03 01:46:24;;;;;;;5.87;5.27;;;16.60;69.20;;;;;;4980187;28;20481;-81
2021/10/03 01:48:51;;;;;;;7.37;5.90;;;16.60;69.20;;;;;;4984034;28;20443;-81
2021/10/03 01:51:18;;;;;;;6.60;5.37;;;16.70;69.30;;;;;;4981719;28;20463;-80
2021/10/03 01:53:47;;;;;;;7.10;5.37;;;16.70;69.20;;;;;;4983413;28;20439;-82
2021/10/03 01:56:17;;;;;;;6.30;5.70;;;16.70;69.30;;;;;;4985113;28;20483;-81
2021/10/03 01:58:46;;;;;;;6.93;6.23;;;16.70;69.60;;;;;;4984762;28;20617;-79
2021/10/03 02:01:16;;;;;;;6.53;5.80;;;16.60;70.00;;;;;;4987151;28;20431;-81
2021/10/03 02:03:43;;;;;;;5.90;5.30;;;16.60;70.40;;;;;;4987468;28;20854;-81
2021/10/03 02:06:11;;;;;;;7.00;5.73;;;16.60;70.40;;;;;;4972510;28;20490;-80
2021/10/03 02:08:38;;;;;;;7.53;6.23;;;16.50;70.70;;;;;;4971879;29;20607;-80
2021/10/03 02:11:05;;;;;;;5.13;4.63;;;16.50;71.50;;;;;;4988486;28;20458;-82
2021/10/03 02:13:34;;;;;;;6.60;5.77;;;16.60;70.80;;;;;;4986499;28;20488;-81
2021/10/03 02:16:02;;;;;;;6.53;5.93;;;16.60;70.80;;;;;;4969139;29;20931;-82
2021/10/03 02:18:35;;;;;;;6.67;6.00;;;16.60;70.30;;;;;;4972528;28;20484;-82
2021/10/03 02:21:03;;;;;;;7.00;6.30;;;16.60;70.90;;;;;;4985721;28;20469;-82
2021/10/03 02:23:34;;;;;;;5.33;4.77;;;16.60;70.50;;;;;;4975067;28;20792;-82
2021/10/03 02:26:01;;;;;;;7.13;5.53;;;16.60;69.40;;;;;;4971118;29;20438;-82
2021/10/03 02:28:29;;;;;;;5.67;5.17;;;16.70;68.30;;;;;;4968608;28;20467;-81
2021/10/03 02:31:00;;;;;;;5.57;5.07;;;16.70;68.00;;;;;;4979334;28;20437;-81
2021/10/03 02:33:27;;;;;;;5.37;4.87;;;16.80;67.70;;;;;;4979867;28;20457;-81
2021/10/03 02:35:55;;;;;;;5.03;4.53;;;16.80;67.30;;;;;;4979936;28;20497;-81
2021/10/03 02:38:25;;;;;;;5.63;4.57;;;16.90;66.60;;;;;;4985036;28;20473;-81
2021/10/03 02:40:54;;;;;;;5.20;3.83;;;16.90;65.00;;;;;;4978848;28;20597;-81
2021/10/03 02:43:22;;;;;;;4.73;4.33;;;17.00;64.30;;;;;;4979686;28;20424;-81
2021/10/03 02:45:52;;;;;;;4.33;3.80;;;17.10;62.60;;;;;;4979188;28;21024;-80
2021/10/03 02:48:23;;;;;;;4.30;3.90;;;17.20;61.10;;;;;;4971027;28;20476;-81
2021/10/03 02:50:52;;;;;;;4.10;3.67;;;17.40;60.40;;;;;;4958935;29;20481;-81
2021/10/03 02:53:20;;;;;;;4.60;3.60;;;17.60;56.90;;;;;;4965556;28;20478;-81
2021/10/03 02:55:47;;;;;;;5.53;3.80;;;17.80;56.50;;;;;;4981889;28;20582;-82
2021/10/03 02:58:14;;;;;;;4.60;4.17;;;17.80;56.50;;;;;;4983494;28;20582;-80
2021/10/03 03:00:43;;;;;;;4.10;3.70;;;17.80;56.50;;;;;;4985496;28;20427;-80
2021/10/03 03:03:11;;;;;;;5.73;3.50;;;18.00;55.50;;;;;;4989169;28;20439;-81
2021/10/03 03:05:40;;;;;;;4.13;3.60;;;18.10;54.70;;;;;;4989039;28;20456;-81
2021/10/03 03:08:07;;;;;;;4.80;3.40;;;18.10;53.90;;;;;;4970054;28;20503;-80
2021/10/03 03:10:34;;;;;;;4.00;3.60;;;18.20;53.80;;;;;;4969076;29;20455;-82
2021/10/03 03:13:02;;;;;;;3.30;3.00;;;18.20;52.90;;;;;;4986956;28;20448;-81
2021/10/03 03:15:29;;;;;;;4.57;3.80;;;18.20;52.80;;;;;;4982418;28;20492;-81
2021/10/03 03:17:56;;;;;;;3.57;3.23;;;18.30;52.20;;;;;;4961458;28;20549;-79
2021/10/03 03:20:23;;;;;;;3.70;3.40;;;18.30;51.80;;;;;;4965662;29;20468;-82
2021/10/03 03:22:52;;;;;;;4.03;3.40;;;18.30;51.40;;;;;;4971704;28;20460;-81
2021/10/03 03:25:20;;;;;;;3.70;3.40;;;18.40;50.80;;;;;;4970104;29;20453;-80
2021/10/03 03:27:47;;;;;;;7.00;3.63;;;18.50;50.50;;;;;;4970262;28;20483;-81
2021/10/03 03:30:15;;;;;;;3.97;3.30;;;18.50;50.50;;;;;;4981445;28;20841;-82
2021/10/03 03:32:42;;;;;;;3.53;3.23;;;18.50;50.60;;;;;;4975044;28;20462;-81
2021/10/03 03:35:10;;;;;;;4.03;3.63;;;18.40;50.60;;;;;;4970106;29;20462;-82
2021/10/03 03:37:38;;;;;;;3.30;3.00;;;18.40;50.40;;;;;;4972656;28;20522;-81
2021/10/03 03:40:10;;;;;;;3.10;2.90;;;18.40;50.60;;;;;;4971210;29;20489;-81
2021/10/03 03:42:37;;;;;;;3.47;3.17;;;18.40;50.20;;;;;;4972089;28;20464;-81
2021/10/03 03:45:05;;;;;;;3.67;3.37;;;18.40;50.30;;;;;;4965569;29;20455;-81
2021/10/03 03:47:32;;;;;;;3.47;3.10;;;18.40;50.20;;;;;;4982472;28;20991;-80
2021/10/03 03:49:59;;;;;;;3.70;3.40;;;18.40;49.90;;;;;;4986395;28;20466;-81
2021/10/03 03:52:26;;;;;;;4.27;3.30;;;18.40;49.50;;;;;;4982122;28;20431;-80
2021/10/03 03:54:53;;;;;;;3.23;2.93;;;18.40;49.50;;;;;;4983531;28;20462;-81
2021/10/03 03:57:21;;;;;;;5.90;3.33;;;18.40;49.50;;;;;;4982765;28;20500;-81
2021/10/03 03:59:48;;;;;;;4.17;3.60;;;18.40;49.40;;;;;;4982438;28;20472;-81
2021/10/03 04:02:16;;;;;;;3.10;2.90;;;18.40;49.40;;;;;;4973823;28;20448;-81
2021/10/03 04:04:44;;;;;;;3.83;3.53;;;18.40;49.20;;;;;;4964278;29;20533;-81
2021/10/03 04:07:11;;;;;;;5.13;3.60;;;18.40;49.20;;;;;;4963480;28;20455;-80
2021/10/03 04:09:39;;;;;;;3.00;2.80;;;18.40;49.70;;;;;;4963866;29;20444;-81
2021/10/03 04:12:06;;;;;;;4.87;4.07;;;18.40;50.10;;;;;;4965405;28;20504;-81
2021/10/03 04:14:35;;;;;;;3.60;3.30;;;18.30;51.60;;;;;;4966479;29;20500;-80
2021/10/03 04:17:02;;;;;;;3.60;3.30;;;18.30;52.20;;;;;;4972831;28;20499;-81
2021/10/03 04:19:29;;;;;;;4.10;3.67;;;18.20;52.10;;;;;;4973126;29;20498;-80
2021/10/03 04:21:56;;;;;;;3.37;3.07;;;18.10;52.70;;;;;;4969669;28;20471;-81
2021/10/03 04:24:23;;;;;;;3.47;3.17;;;18.10;52.70;;;;;;4968144;29;20846;-81
2021/10/03 04:26:50;;;;;;;3.57;3.27;;;18.00;52.30;;;;;;4972839;28;20470;-80
2021/10/03 04:29:17;;;;;;;3.83;3.53;;;18.00;53.10;;;;;;4986243;28;20459;-82
2021/10/03 04:31:45;;;;;;;4.70;4.30;;;18.00;54.70;;;;;;4966088;28;20459;-81
2021/10/03 04:34:12;;;;;;;5.63;5.13;;;17.80;57.70;;;;;;4965191;29;20955;-80
2021/10/03 04:36:40;;;;;;;5.53;4.63;;;17.70;59.80;;;;;;4965644;28;20493;-81
2021/10/03 04:39:07;;;;;;;7.83;4.70;;;17.70;60.40;;;;;;4962678;29;20501;-81
2021/10/03 04:41:35;;;;;;;6.00;4.60;;;17.60;61.20;;;;;;4975626;28;20513;-82
2021/10/03 04:44:02;;;;;;;5.97;4.53;;;17.60;61.30;;;;;;4979653;28;20454;-81
2021/10/03 04:46:29;;;;;;;4.73;4.33;;;17.50;62.60;;;;;;4993262;28;20448;-82
2021/10/03 04:48:58;;;;;;;5.13;4.60;;;17.40;63.50;;;;;;5102568;23;20482;-82
2021/10/03 04:51:27;;;;;;;5.97;4.73;;;17.40;63.80;;;;;;4958738;28;20448;-81
2021/10/03 04:53:54;;;;;;;4.90;4.43;;;17.40;63.10;;;;;;4957408;28;20440;-81
2021/10/03 04:56:21;;;;;;;6.33;4.93;;;17.40;62.30;;;;;;4949634;29;20471;-81
2021/10/03 04:58:49;;;;;;;4.73;4.33;;;17.40;63.30;;;;;;4930313;29;20479;-80
2021/10/03 05:01:17;;;;;;;5.33;4.10;;;17.30;65.00;;;;;;4942414;29;20428;-81
2021/10/03 05:03:45;;;;;;;4.37;3.97;;;17.30;64.10;;;;;;4935055;29;20435;-81
2021/10/03 05:06:13;;;;;;;4.03;3.73;;;17.30;62.80;;;;;;4942307;29;20471;-79
2021/10/03 05:09:01;;;;;;;4.77;4.37;;;17.40;60.60;;;;;;4927073;29;20483;-78
2021/10/03 05:11:45;;;;;;;3.43;3.13;;;17.40;60.80;;;;;;4922952;29;20450;-79
2021/10/03 05:14:48;;;;;;;3.60;3.30;;;17.40;57.80;;;;;;4920033;29;20479;-78
2021/10/03 05:20:54;;;;;;;3.80;2.87;;;17.70;55.40;;;;;;4825232;29;20580;-79
2021/10/03 05:23:38;;;;;;;3.63;3.00;;;17.70;54.20;;;;;;4825091;29;20465;-79
2021/10/03 05:26:23;;;;;;;3.60;3.30;;;17.80;54.10;;;;;;4825786;29;20439;-77
2021/10/03 05:28:57;;;;;;;3.47;3.17;;;17.80;53.80;;;;;;4818740;29;20521;-78
2021/10/03 05:40:57;;;;;;;4.90;4.40;;;17.80;56.50;;;;;;4938424;29;20808;-77
2021/10/03 06:03:39;;;;;;;5.80;4.60;;;17.80;59.20;;;;;;4844543;29;20975;-80
2021/10/03 06:13:09;;;;;;;4.30;3.90;;;18.00;59.40;;;;;;4663037;30;20577;-79
2021/10/03 06:18:33;;;;;;;4.33;3.93;;;18.10;59.60;;;;;;4681276;30;20544;-79
2021/10/03 06:21:00;;;;;;;5.83;4.30;;;18.10;59.80;;;;;;4688372;30;20495;-78
2021/10/03 06:23:27;;;;;;;4.80;4.30;;;18.10;59.10;;;;;;4697824;30;20620;-79
2021/10/03 06:25:54;;;;;;;5.93;4.80;;;18.20;58.40;;;;;;4687909;30;20955;-79
2021/10/03 06:28:22;;;;;;;4.33;3.90;;;18.20;58.30;;;;;;4683540;30;20477;-80
2021/10/03 06:30:49;;;;;;;4.80;4.40;;;18.30;58.80;;;;;;4706081;30;20539;-81
2021/10/03 06:38:57;;;;;;;6.17;4.40;;;18.30;58.60;;;;;;5021547;23;20502;-78
2021/10/03 06:41:24;;;;;;;6.00;4.50;;;18.30;57.00;;;;;;4977817;28;20430;-78
2021/10/03 06:43:52;;;;;;;4.77;4.37;;;18.40;57.90;;;;;;4979741;28;20532;-80
2021/10/03 06:46:19;;;;;;;4.50;4.03;;;18.50;57.20;;;;;;4982114;28;20522;-79
2021/10/03 06:48:46;;;;;;;4.40;3.97;;;18.50;57.80;;;;;;4976996;28;20529;-77
2021/10/03 06:51:14;;;;;;;4.40;4.00;;;18.60;57.60;;;;;;4976721;28;20426;-78
2021/10/03 06:53:41;;;;;;;5.33;4.27;;;18.50;58.40;;;;;;4975863;28;20463;-77
2021/10/03 06:56:09;;;;;;;4.83;4.00;;;18.50;57.70;;;;;;4975489;28;20433;-77
2021/10/03 06:58:36;;;;;;;6.20;4.80;;;18.50;58.00;;;;;;4979930;28;20475;-79
2021/10/03 07:01:05;;;;;;;4.30;3.90;;;18.50;57.20;;;;;;4992098;28;20422;-78
2021/10/03 07:03:32;;;;;;;5.10;4.57;;;18.50;58.30;;;;;;4998640;28;20466;-83
2021/10/03 07:05:59;;;;;;;4.93;4.37;;;18.50;59.60;;;;;;4998880;28;20456;-83
2021/10/03 07:08:26;;;;;;;4.60;4.13;;;18.60;59.60;;;;;;4983337;28;20484;-80
2021/10/03 07:10:53;;;;;;;5.30;4.50;;;18.70;57.40;;;;;;4972595;29;20439;-79
2021/10/03 07:13:20;;;;;;;4.77;4.30;;;18.70;57.40;;;;;;4971446;28;20467;-78
2021/10/03 07:15:47;;;;;;;4.73;4.33;;;18.70;57.40;;;;;;4965896;29;20500;-80
2021/10/03 07:18:18;;;;;;;5.13;4.63;;;18.80;57.50;;;;;;4988949;28;20465;-79
2021/10/03 07:20:45;;;;;;;5.53;5.03;;;18.70;59.30;;;;;;4994118;28;20452;-80
2021/10/03 07:23:12;;;;;;;7.90;4.60;;;18.80;58.00;;;;;;4978169;28;20441;-80
2021/10/03 07:25:39;;;;;;;8.90;5.23;;;18.90;57.60;;;;;;4967304;29;20868;-81
2021/10/03 07:28:07;;;;;;;4.97;4.47;;;18.80;58.80;;;;;;4969325;28;20460;-80
2021/10/03 07:30:34;;;;;;;5.43;4.57;;;18.80;60.40;;;;;;4970282;28;20439;-81
2021/10/03 07:33:03;;;;;;;6.43;5.20;;;18.70;60.90;;;;;;4970739;29;20463;-79
2021/10/03 07:35:32;;;;;;;5.43;4.10;;;18.70;60.40;;;;;;4976448;28;20456;-81
2021/10/03 07:37:59;;;;;;;6.67;5.57;;;18.80;59.40;;;;;;4984922;28;20510;-81
2021/10/03 07:40:26;;;;;;;4.37;3.97;;;18.80;58.60;;;;;;4987114;28;20525;-80
2021/10/03 07:43:02;;;;;;;4.93;4.53;;;18.80;58.80;;;;;;4982976;28;20467;-79
2021/10/03 07:45:29;;;;;;;5.00;4.50;;;18.80;57.50;;;;;;4979712;28;20969;-78
2021/10/03 07:47:56;;;;;;;7.03;5.10;;;18.80;58.20;;;;;;4957832;29;20473;-77
2021/10/03 07:50:23;;;;;;;6.37;5.57;;;18.90;57.60;;;;;;4958830;29;20541;-78
2021/10/03 07:52:51;;;;;;;5.77;4.67;;;18.80;59.40;;;;;;4958005;29;20454;-78
2021/10/03 07:55:19;;;;;;;6.27;4.57;;;18.80;60.10;;;;;;4961528;28;20484;-79
2021/10/03 07:57:45;;;;;;;5.67;4.90;;;18.70;60.50;;;;;;4972208;29;20528;-79
2021/10/03 08:00:13;;;;;;;10.23;5.20;;;18.80;61.10;;;;;;4980126;28;20457;-81
2021/10/03 08:02:41;;;;;;;7.27;5.77;;;18.70;62.00;;;;;;4993832;28;20494;-80
2021/10/03 08:05:08;;;;;;;10.43;7.00;;;18.60;61.90;;;;;;4982436;28;20458;-81
2021/10/03 08:07:35;;;;;;;8.33;6.37;;;18.60;62.40;;;;;;4969778;29;20483;-84
2021/10/03 08:10:06;;;;;;;5.00;4.50;;;18.60;62.20;;;;;;4969070;28;20467;-81
2021/10/03 08:12:36;;;;;;;5.13;4.63;;;18.60;61.60;;;;;;4991897;28;20459;-79
2021/10/03 08:15:04;;;;;;;4.63;4.10;;;18.60;61.20;;;;;;4989726;28;20944;-83
2021/10/03 08:17:31;;;;;;;6.90;5.50;;;18.70;60.60;;;;;;4967933;29;20476;-82
2021/10/03 08:19:58;;;;;;;4.50;4.10;;;18.70;59.70;;;;;;4983874;28;20429;-82
2021/10/03 08:22:28;;;;;;;6.57;4.70;;;18.70;59.10;;;;;;4987177;28;20454;-83
2021/10/03 08:24:55;;;;;;;4.80;4.40;;;18.70;59.10;;;;;;4984296;28;20517;-82
2021/10/03 08:27:23;;;;;;;5.07;4.10;;;18.80;58.50;;;;;;4981957;28;20465;-83
2021/10/03 08:29:50;;;;;;;5.00;4.50;;;18.90;58.40;;;;;;4978625;28;20796;-83
2021/10/03 08:32:17;;;;;;;5.70;5.10;;;18.90;59.70;;;;;;4972368;28;20640;-83
2021/10/03 08:34:44;;;;;;;6.77;4.40;;;18.80;61.00;;;;;;4979989;28;20495;-82
2021/10/03 08:37:12;;;;;;;6.93;4.80;;;18.80;61.70;;;;;;4993540;28;20573;-81
2021/10/03 08:39:38;;;;;;;5.00;4.50;;;18.70;62.10;;;;;;4990127;28;20493;-78
2021/10/03 08:42:07;;;;;;;5.37;4.60;;;18.70;64.50;;;;;;4987455;28;20451;-83
2021/10/03 08:44:36;;;;;;;6.53;5.77;;;18.70;64.60;;;;;;4986128;28;20938;-83
2021/10/03 08:47:03;;;;;;;6.87;5.37;;;18.70;66.60;;;;;;4992244;28;20467;-83
2021/10/03 08:49:30;;;;;;;6.60;6.00;;;18.80;66.60;;;;;;4992214;28;20570;-81
2021/10/03 08:51:57;;;;;;;5.50;4.90;;;18.80;63.70;;;;;;4987050;28;20450;-82
2021/10/03 08:54:24;;;;;;;5.90;5.30;;;18.80;63.50;;;;;;4983223;28;20448;-82
2021/10/03 08:56:51;;;;;;;4.30;3.90;;;18.70;63.60;;;;;;4979392;29;20455;-82
2021/10/03 08:59:18;;;;;;;5.07;4.57;;;18.70;62.50;;;;;;4975806;29;20478;-83
2021/10/03 09:01:51;;;;;;;4.57;4.13;;;18.80;62.10;;;;;;4974636;29;20704;-82
2021/10/03 09:04:26;;;;;;;7.23;5.10;;;18.90;61.30;;;;;;4976858;29;20479;-81
2021/10/03 09:07:01;;;;;;;4.87;4.37;;;19.00;61.20;;;;;;4978859;29;20486;-82
2021/10/03 09:09:53;;;;;;;6.87;5.00;;;19.00;61.20;;;;;;4980012;28;20431;-82
2021/10/03 09:12:29;;;;;;;5.77;5.17;;;19.10;60.70;;;;;;4980644;28;20597;-82
2021/10/03 09:14:57;;;;;;;5.77;4.20;;;19.20;61.20;;;;;;4980595;28;20527;-81
2021/10/03 09:17:26;;;;;;;4.57;4.17;;;19.20;59.80;;;;;;4980534;28;20469;-81
2021/10/03 09:20:15;;;;;;;5.83;5.00;;;19.30;57.90;;;;;;4980631;28;20461;-81
2021/10/03 09:23:04;;;;;;;6.80;5.27;;;19.50;58.20;;;;;;4980923;28;20462;-81
2021/10/03 09:25:33;;;;;;;9.10;5.27;;;19.60;58.20;;;;;;4977451;29;20481;-82
2021/10/03 09:28:00;;;;;;;4.40;4.03;;;19.60;58.20;;;;;;4972206;29;20489;-81
2021/10/03 09:30:27;;;;;;;5.17;4.77;;;19.70;57.90;;;;;;4972532;29;20957;-81
2021/10/03 09:32:57;;;;;;;5.20;4.77;;;19.70;57.10;;;;;;4970846;29;20458;-83
2021/10/03 09:35:25;;;;;;;6.07;5.47;;;19.80;57.20;;;;;;4970195;29;20462;-81
2021/10/03 09:37:52;;;;;;;6.80;5.40;;;19.50;58.10;;;;;;4969124;29;20531;-83
2021/10/03 09:40:20;;;;;;;7.30;5.43;;;19.60;59.40;;;;;;4968912;29;20435;-83
2021/10/03 09:42:52;;;;;;;5.37;4.87;;;19.60;59.70;;;;;;4965664;29;20571;-83
2021/10/03 09:45:22;;;;;;;5.93;4.93;;;19.80;58.40;;;;;;4967587;29;20483;-83
2021/10/03 09:48:06;;;;;;;5.40;4.67;;;19.80;58.80;;;;;;4969425;29;20523;-81
2021/10/03 09:50:37;;;;;;;6.00;5.40;;;19.70;59.50;;;;;;4970318;28;20443;-83
2021/10/03 09:53:04;;;;;;;6.20;5.03;;;19.90;58.50;;;;;;4971505;29;20444;-80
2021/10/03 09:55:31;;;;;;;5.53;5.03;;;20.10;58.70;;;;;;4971446;28;20483;-81
2021/10/03 09:57:59;;;;;;;5.87;5.03;;;20.20;58.80;;;;;;4973187;29;20472;-81
2021/10/03 10:00:30;;;;;;;6.87;5.80;;;20.30;58.90;;;;;;4973021;28;20443;-82
2021/10/03 10:02:59;;;;;;;6.17;4.97;;;20.60;59.20;;;;;;4969639;29;20424;-82
2021/10/03 10:05:28;;;;;;;5.90;5.40;;;20.80;58.20;;;;;;4968775;29;20436;-82
2021/10/03 10:07:56;;;;;;;4.47;3.87;;;21.10;56.40;;;;;;4977335;29;20828;-81
2021/10/03 10:10:24;;;;;;;5.40;4.53;;;21.20;55.90;;;;;;4974276;29;20461;-81
2021/10/03 10:12:56;;;;;;;6.07;5.37;;;21.40;53.20;;;;;;4972386;29;20432;-80
2021/10/03 10:15:25;;;;;;;5.23;4.73;;;21.40;52.50;;;;;;4973934;29;20420;-82
2021/10/03 10:17:53;;;;;;;5.73;5.10;;;21.50;51.10;;;;;;4974131;29;20448;-82
2021/10/03 10:20:37;;;;;;;7.53;6.60;;;21.60;50.90;;;;;;4973732;29;20432;-83
2021/10/03 10:23:07;;;;;;;11.73;9.70;;;21.50;52.00;;;;;;4967569;29;20436;-82
2021/10/03 10:25:43;;;;;;;12.90;11.30;;;21.50;52.70;;;;;;4967810;28;20496;-82
2021/10/03 10:28:19;;;;;;;13.80;11.43;;;21.40;53.00;;;;;;4967318;29;20458;-83
2021/10/03 10:31:07;;;;;;;14.37;13.00;;;21.20;53.90;;;;;;4968639;29;20432;-83
2021/10/03 10:34:14;;;;;;;12.27;11.07;;;21.20;54.60;;;;;;4965889;28;20444;-82
2021/10/03 10:36:56;;;;;;;12.53;10.70;;;21.00;55.50;;;;;;4959310;29;20462;-83
2021/10/03 10:39:30;;;;;;;11.27;10.27;;;20.70;55.90;;;;;;4964642;28;20503;-79
2021/10/03 10:42:01;;;;;;;9.60;8.53;;;20.50;57.30;;;;;;4966513;28;20463;-81
2021/10/03 10:44:39;;;;;;;10.50;9.50;;;20.70;56.80;;;;;;4967423;28;20541;-81
2021/10/03 10:47:15;;;;;;;6.57;5.97;;;20.60;57.60;;;;;;4974291;28;20452;-81
2021/10/03 10:49:44;;;;;;;5.87;5.33;;;20.20;58.80;;;;;;4974988;28;20467;-79
2021/10/03 10:52:33;;;;;;;7.73;6.30;;;20.20;60.20;;;;;;4971427;28;20464;-81
2021/10/03 10:55:30;;;;;;;5.80;5.30;;;20.30;60.80;;;;;;4968280;29;20462;-81
2021/10/03 10:58:17;;;;;;;6.90;4.97;;;20.60;59.50;;;;;;4962630;29;20459;-80
2021/10/03 11:01:16;;;;;;;5.77;5.20;;;20.70;59.30;;;;;;4964140;29;20427;-80
2021/10/03 11:04:05;;;;;;;4.87;4.37;;;20.60;59.20;;;;;;4960602;29;20448;-81
2021/10/03 11:07:05;;;;;;;6.90;6.13;;;20.50;60.20;;;;;;4966027;29;20506;-81
2021/10/03 11:10:01;;;;;;;6.80;6.10;;;20.80;59.30;;;;;;4963981;29;20442;-81
2021/10/03 11:12:33;;;;;;;4.27;3.87;;;21.00;59.50;;;;;;4968902;29;20471;-80
2021/10/03 11:15:31;;;;;;;5.50;4.57;;;21.40;58.30;;;;;;4965623;29;20453;-80
2021/10/03 11:18:06;;;;;;;5.80;4.80;;;21.70;56.30;;;;;;4965487;29;20513;-80
2021/10/03 11:20:34;;;;;;;4.97;4.47;;;21.70;55.90;;;;;;4967103;29;20471;-80
2021/10/03 11:23:01;;;;;;;5.90;5.40;;;22.00;56.00;;;;;;4963505;29;20499;-79
2021/10/03 11:25:31;;;;;;;5.77;5.20;;;22.20;55.10;;;;;;4964922;29;20428;-79
2021/10/03 11:27:58;;;;;;;6.53;5.47;;;22.10;55.90;;;;;;4962125;29;20543;-81
2021/10/03 11:30:27;;;;;;;6.70;5.10;;;22.10;56.40;;;;;;4969946;29;20444;-82
2021/10/03 11:32:54;;;;;;;5.93;5.33;;;22.30;55.60;;;;;;4978981;28;20451;-82
2021/10/03 11:35:21;;;;;;;5.90;5.40;;;22.30;56.80;;;;;;4978038;28;20454;-82
2021/10/03 11:37:51;;;;;;;6.90;5.47;;;22.10;58.60;;;;;;4977259;28;20475;-81
2021/10/03 11:40:20;;;;;;;6.03;5.53;;;21.80;60.20;;;;;;4963962;28;20485;-81
2021/10/03 11:42:50;;;;;;;5.87;5.27;;;21.60;60.90;;;;;;4964760;29;20501;-82
2021/10/03 11:45:20;;;;;;;5.97;5.47;;;21.70;60.80;;;;;;4962640;29;20520;-80
2021/10/03 11:47:49;;;;;;;6.53;5.97;;;22.10;60.50;;;;;;4962601;28;20489;-80
2021/10/03 11:50:21;;;;;;;6.30;5.67;;;22.40;60.80;;;;;;4964376;29;20434;-80
2021/10/03 11:52:48;;;;;;;6.67;5.43;;;22.30;60.70;;;;;;4963975;29;20477;-80
2021/10/03 11:55:18;;;;;;;5.90;5.40;;;22.30;60.00;;;;;;4963286;29;20467;-80
2021/10/03 11:57:48;;;;;;;5.67;5.13;;;22.30;60.10;;;;;;4973369;28;20467;-81
2021/10/03 12:00:21;;;;;;;5.50;4.90;;;22.50;59.20;;;;;;4963493;29;20512;-81
2021/10/03 12:02:50;;;;;;;5.60;5.10;;;23.00;57.30;;;;;;4957513;29;20453;-81
2021/10/03 12:05:21;;;;;;;5.50;5.00;;;23.20;56.50;;;;;;4964559;28;20434;-80
2021/10/03 12:07:59;;;;;;;6.00;4.57;;;23.40;55.20;;;;;;4967469;29;20458;-80
2021/10/03 12:10:35;;;;;;;5.20;4.70;;;23.50;54.90;;;;;;4968617;29;20438;-80
2021/10/03 12:13:12;;;;;;;5.53;4.57;;;23.80;53.60;;;;;;4977703;29;20427;-81
2021/10/03 12:15:50;;;;;;;4.20;3.80;;;23.70;53.20;;;;;;4976123;29;20429;-81
2021/10/03 12:18:43;;;;;;;6.83;4.10;;;23.90;52.50;;;;;;4970729;28;20483;-79
2021/10/03 12:21:12;;;;;;;4.70;4.10;;;24.10;51.70;;;;;;4964002;28;20964;-80
2021/10/03 12:23:55;;;;;;;5.50;4.90;;;24.60;50.20;;;;;;4964368;29;20522;-80
2021/10/03 12:26:31;;;;;;;4.87;4.37;;;24.70;49.00;;;;;;4962983;29;20489;-80
2021/10/03 12:29:10;;;;;;;5.73;5.13;;;24.70;49.60;;;;;;4966020;29;20449;-80
2021/10/03 12:31:39;;;;;;;6.00;5.10;;;25.00;48.90;;;;;;4965241;29;20419;-79
2021/10/03 12:34:09;;;;;;;4.70;4.30;;;25.20;48.80;;;;;;4968836;28;20510;-80
2021/10/03 12:36:36;;;;;;;5.07;4.57;;;25.40;47.60;;;;;;4968985;29;20435;-80
2021/10/03 12:39:03;;;;;;;5.87;4.77;;;25.40;47.50;;;;;;4968444;29;20468;-81
2021/10/03 12:41:31;;;;;;;4.80;4.30;;;25.40;47.40;;;;;;4971694;29;20420;-81
2021/10/03 12:43:58;;;;;;;5.47;4.20;;;25.30;47.00;;;;;;4971217;28;20436;-79
2021/10/03 12:46:27;;;;;;;6.60;4.00;;;25.10;47.30;;;;;;4967016;29;20480;-80
2021/10/03 12:48:55;;;;;;;6.50;4.30;;;24.90;47.70;;;;;;4986005;28;20990;-81
2021/10/03 12:51:22;;;;;;;5.20;4.00;;;24.80;48.00;;;;;;4997953;23;20461;-80
2021/10/03 12:53:49;;;;;;;4.67;4.20;;;24.70;48.10;;;;;;4947940;29;20421;-81
2021/10/03 12:56:16;;;;;;;5.47;4.97;;;24.50;48.20;;;;;;4943284;29;20458;-79
2021/10/03 12:58:43;;;;;;;6.63;4.87;;;24.10;49.40;;;;;;4944835;29;20489;-81
2021/10/03 13:01:10;;;;;;;6.17;5.63;;;23.90;50.00;;;;;;4939453;29;20476;-80
2021/10/03 13:03:40;;;;;;;7.37;5.73;;;23.70;50.00;;;;;;4931804;29;20487;-79
2021/10/03 13:06:07;;;;;;;6.63;5.93;;;23.50;50.30;;;;;;4919157;29;20497;-80
2021/10/03 13:08:34;;;;;;;7.13;6.43;;;23.40;52.00;;;;;;4936631;29;20826;-79
2021/10/03 13:11:01;;;;;;;6.20;5.60;;;23.30;51.90;;;;;;4934191;29;20473;-79
2021/10/03 13:13:28;;;;;;;6.30;5.67;;;23.10;52.50;;;;;;4940668;29;20462;-81
2021/10/03 13:15:56;;;;;;;10.40;6.67;;;22.90;53.20;;;;;;4928912;29;20463;-80
2021/10/03 13:18:23;;;;;;;6.20;5.60;;;22.70;54.60;;;;;;4938651;29;20450;-81
2021/10/03 13:20:52;;;;;;;6.20;5.60;;;22.50;54.70;;;;;;4929886;29;20529;-79
2021/10/03 13:23:19;;;;;;;8.53;6.00;;;22.10;55.50;;;;;;4922384;29;20442;-79
2021/10/03 13:25:46;;;;;;;11.37;5.80;;;21.90;56.50;;;;;;4920432;29;20426;-78
2021/10/03 13:28:13;;;;;;;7.10;5.70;;;21.80;58.80;;;;;;4921232;29;20522;-78
2021/10/03 13:30:40;;;;;;;6.53;5.83;;;21.60;59.60;;;;;;4918586;29;20464;-78
2021/10/03 13:33:07;;;;;;;6.70;5.20;;;21.50;60.20;;;;;;4922009;29;20465;-79
2021/10/03 13:35:38;;;;;;;7.20;5.60;;;21.20;61.10;;;;;;4922806;29;20513;-79
2021/10/03 13:38:08;;;;;;;6.43;5.73;;;21.00;60.80;;;;;;4921296;29;20816;-80
2021/10/03 13:40:36;;;;;;;5.83;4.87;;;20.90;62.20;;;;;;4921352;29;20465;-79
2021/10/03 13:43:04;;;;;;;5.80;5.30;;;20.90;61.00;;;;;;4923806;29;20460;-78
2021/10/03 13:45:31;;;;;;;4.50;4.10;;;20.80;59.30;;;;;;4923809;29;20446;-80
2021/10/03 13:47:57;;;;;;;7.80;4.30;;;20.70;59.30;;;;;;4923188;29;20546;-79